sensor_id;sensor_type;location;lat;lon;timestamp;P1;durP1;ratioP1;P2;durP2;ratioP2
6852;SDS011;3465;42.144;24.722;2023-07-02T00:01:02;13.52;;;6.03;;
6852;SDS011;3465;42.144;24.722;2023-07-02T00:03:28;11.60;;;5.88;;
6852;SDS011;3465;42.144;24.722;2023-07-02T00:05:54;10.70;;;5.88;;
6852;SDS011;3465;42.144;24.722;2023-07-02T00:08:21;11.98;;;5.70;;
6852;SDS011;3465;42.144;24.722;2023-07-02T00:10:47;16.42;;;5.70;;
6852;SDS011;3465;42.144;24.722;2023-07-02T00:13:12;10.65;;;6.07;;
6852;SDS011;3465;42.144;24.722;2023-07-02T00:15:38;12.98;;;7.88;;
6852;SDS011;3465;42.144;24.722;2023-07-02T00:18:03;13.18;;;8.27;;
6852;SDS011;3465;42.144;24.722;2023-07-02T00:20:28;13.55;;;9.10;;
6852;SDS011;3465;42.144;24.722;2023-07-02T00:22:55;16.65;;;10.02;;
6852;SDS011;3465;42.144;24.722;2023-07-02T00:25:21;18.20;;;10.60;;
6852;SDS011;3465;42.144;24.722;2023-07-02T00:27:46;13.50;;;8.63;;
6852;SDS011;3465;42.144;24.722;2023-07-02T00:30:12;14.35;;;9.00;;
6852;SDS011;3465;42.144;24.722;2023-07-02T00:32:38;20.23;;;9.10;;
6852;SDS011;3465;42.144;24.722;2023-07-02T00:35:03;11.98;;;7.85;;
6852;SDS011;3465;42.144;24.722;2023-07-02T00:37:29;14.45;;;7.88;;
6852;SDS011;3465;42.144;24.722;2023-07-02T00:39:54;17.65;;;8.35;;
6852;SDS011;3465;42.144;24.722;2023-07-02T00:42:20;12.90;;;7.35;;
6852;SDS011;3465;42.144;24.722;2023-07-02T00:44:46;11.95;;;6.70;;
6852;SDS011;3465;42.144;24.722;2023-07-02T00:47:11;11.40;;;6.95;;
6852;SDS011;3465;42.144;24.722;2023-07-02T00:49:38;11.32;;;7.25;;
6852;SDS011;3465;42.144;24.722;2023-07-02T00:52:05;12.85;;;6.72;;
6852;SDS011;3465;42.144;24.722;2023-07-02T00:54:31;11.32;;;7.05;;
6852;SDS011;3465;42.144;24.722;2023-07-02T00:56:56;11.55;;;6.47;;
6852;SDS011;3465;42.144;24.722;2023-07-02T00:59:27;9.90;;;6.72;;
6852;SDS011;3465;42.144;24.722;2023-07-02T01:01:54;13.27;;;8.00;;
6852;SDS011;3465;42.144;24.722;2023-07-02T01:04:22;14.18;;;8.30;;
6852;SDS011;3465;42.144;24.722;2023-07-02T01:06:52;14.77;;;8.15;;
6852;SDS011;3465;42.144;24.722;2023-07-02T01:09:22;16.35;;;9.52;;
6852;SDS011;3465;42.144;24.722;2023-07-02T01:11:52;14.57;;;8.75;;
6852;SDS011;3465;42.144;24.722;2023-07-02T01:14:26;17.27;;;10.25;;
6852;SDS011;3465;42.144;24.722;2023-07-02T01:16:55;22.92;;;13.27;;
6852;SDS011;3465;42.144;24.722;2023-07-02T01:21:57;27.52;;;15.73;;
6852;SDS011;3465;42.144;24.722;2023-07-02T01:24:23;25.75;;;14.52;;
6852;SDS011;3465;42.144;24.722;2023-07-02T01:26:49;26.15;;;15.43;;
6852;SDS011;3465;42.144;24.722;2023-07-02T01:29:15;22.38;;;12.98;;
6852;SDS011;3465;42.144;24.722;2023-07-02T01:31:45;20.15;;;11.50;;
6852;SDS011;3465;42.144;24.722;2023-07-02T01:34:11;19.42;;;10.93;;
6852;SDS011;3465;42.144;24.722;2023-07-02T01:36:37;16.45;;;10.13;;
6852;SDS011;3465;42.144;24.722;2023-07-02T01:39:03;20.58;;;9.02;;
6852;SDS011;3465;42.144;24.722;2023-07-02T01:41:29;12.32;;;7.88;;
6852;SDS011;3465;42.144;24.722;2023-07-02T01:43:54;15.55;;;8.35;;
6852;SDS011;3465;42.144;24.722;2023-07-02T01:46:20;16.77;;;8.00;;
6852;SDS011;3465;42.144;24.722;2023-07-02T01:48:45;13.23;;;7.18;;
6852;SDS011;3465;42.144;24.722;2023-07-02T01:51:11;12.45;;;6.78;;
6852;SDS011;3465;42.144;24.722;2023-07-02T01:53:36;14.65;;;6.32;;
6852;SDS011;3465;42.144;24.722;2023-07-02T01:56:02;12.20;;;7.18;;
6852;SDS011;3465;42.144;24.722;2023-07-02T01:58:27;15.65;;;6.72;;
6852;SDS011;3465;42.144;24.722;2023-07-02T02:00:53;12.50;;;6.70;;
6852;SDS011;3465;42.144;24.722;2023-07-02T02:03:18;12.13;;;6.20;;
6852;SDS011;3465;42.144;24.722;2023-07-02T02:05:44;11.00;;;6.00;;
6852;SDS011;3465;42.144;24.722;2023-07-02T02:08:09;12.88;;;6.68;;
6852;SDS011;3465;42.144;24.722;2023-07-02T02:10:34;14.93;;;6.85;;
6852;SDS011;3465;42.144;24.722;2023-07-02T02:13:00;10.70;;;6.53;;
6852;SDS011;3465;42.144;24.722;2023-07-02T02:15:25;11.80;;;6.72;;
6852;SDS011;3465;42.144;24.722;2023-07-02T02:17:51;10.75;;;6.30;;
6852;SDS011;3465;42.144;24.722;2023-07-02T02:20:16;13.23;;;6.80;;
6852;SDS011;3465;42.144;24.722;2023-07-02T02:22:42;12.00;;;6.60;;
6852;SDS011;3465;42.144;24.722;2023-07-02T02:25:07;11.63;;;6.00;;
6852;SDS011;3465;42.144;24.722;2023-07-02T02:27:33;12.38;;;6.38;;
6852;SDS011;3465;42.144;24.722;2023-07-02T02:29:58;10.98;;;6.15;;
6852;SDS011;3465;42.144;24.722;2023-07-02T02:32:24;13.35;;;6.53;;
6852;SDS011;3465;42.144;24.722;2023-07-02T02:34:49;9.73;;;6.10;;
6852;SDS011;3465;42.144;24.722;2023-07-02T02:37:14;8.70;;;5.63;;
6852;SDS011;3465;42.144;24.722;2023-07-02T02:39:40;12.27;;;6.03;;
6852;SDS011;3465;42.144;24.722;2023-07-02T02:42:05;9.77;;;6.07;;
6852;SDS011;3465;42.144;24.722;2023-07-02T02:44:31;11.73;;;6.18;;
6852;SDS011;3465;42.144;24.722;2023-07-02T02:46:57;10.98;;;6.15;;
6852;SDS011;3465;42.144;24.722;2023-07-02T02:49:23;13.68;;;6.00;;
6852;SDS011;3465;42.144;24.722;2023-07-02T02:51:48;9.70;;;5.40;;
6852;SDS011;3465;42.144;24.722;2023-07-02T02:54:14;12.23;;;6.15;;
6852;SDS011;3465;42.144;24.722;2023-07-02T02:56:39;14.77;;;5.90;;
6852;SDS011;3465;42.144;24.722;2023-07-02T02:59:04;13.80;;;6.20;;
6852;SDS011;3465;42.144;24.722;2023-07-02T03:01:30;12.85;;;6.30;;
6852;SDS011;3465;42.144;24.722;2023-07-02T03:03:57;10.98;;;6.50;;
6852;SDS011;3465;42.144;24.722;2023-07-02T03:06:24;13.80;;;6.65;;
6852;SDS011;3465;42.144;24.722;2023-07-02T03:08:49;16.00;;;6.55;;
6852;SDS011;3465;42.144;24.722;2023-07-02T03:11:15;17.50;;;6.63;;
6852;SDS011;3465;42.144;24.722;2023-07-02T03:13:40;12.70;;;6.32;;
6852;SDS011;3465;42.144;24.722;2023-07-02T03:16:05;13.77;;;6.70;;
6852;SDS011;3465;42.144;24.722;2023-07-02T03:18:31;11.80;;;6.90;;
6852;SDS011;3465;42.144;24.722;2023-07-02T03:20:57;16.27;;;7.22;;
6852;SDS011;3465;42.144;24.722;2023-07-02T03:23:24;16.63;;;7.68;;
6852;SDS011;3465;42.144;24.722;2023-07-02T03:25:49;12.70;;;7.55;;
6852;SDS011;3465;42.144;24.722;2023-07-02T03:28:14;13.20;;;7.22;;
6852;SDS011;3465;42.144;24.722;2023-07-02T03:30:40;19.13;;;7.97;;
6852;SDS011;3465;42.144;24.722;2023-07-02T03:33:05;15.82;;;7.53;;
6852;SDS011;3465;42.144;24.722;2023-07-02T03:35:31;12.07;;;6.97;;
6852;SDS011;3465;42.144;24.722;2023-07-02T03:37:56;17.48;;;7.22;;
6852;SDS011;3465;42.144;24.722;2023-07-02T03:40:22;14.32;;;7.93;;
6852;SDS011;3465;42.144;24.722;2023-07-02T03:42:48;16.02;;;6.93;;
6852;SDS011;3465;42.144;24.722;2023-07-02T03:45:13;18.38;;;7.72;;
6852;SDS011;3465;42.144;24.722;2023-07-02T03:47:39;20.33;;;7.90;;
6852;SDS011;3465;42.144;24.722;2023-07-02T03:50:04;23.80;;;7.82;;
6852;SDS011;3465;42.144;24.722;2023-07-02T03:52:30;16.23;;;7.50;;
6852;SDS011;3465;42.144;24.722;2023-07-02T03:54:55;13.43;;;6.85;;
6852;SDS011;3465;42.144;24.722;2023-07-02T03:57:21;15.07;;;6.93;;
6852;SDS011;3465;42.144;24.722;2023-07-02T03:59:46;12.32;;;6.43;;
6852;SDS011;3465;42.144;24.722;2023-07-02T04:02:11;14.85;;;6.65;;
6852;SDS011;3465;42.144;24.722;2023-07-02T04:04:37;12.48;;;6.38;;
6852;SDS011;3465;42.144;24.722;2023-07-02T04:07:02;14.15;;;6.50;;
6852;SDS011;3465;42.144;24.722;2023-07-02T04:09:28;13.35;;;6.75;;
6852;SDS011;3465;42.144;24.722;2023-07-02T04:11:53;15.30;;;6.55;;
6852;SDS011;3465;42.144;24.722;2023-07-02T04:14:18;12.85;;;6.25;;
6852;SDS011;3465;42.144;24.722;2023-07-02T04:16:44;15.10;;;7.22;;
6852;SDS011;3465;42.144;24.722;2023-07-02T04:19:10;18.60;;;6.53;;
6852;SDS011;3465;42.144;24.722;2023-07-02T04:21:36;23.45;;;6.95;;
6852;SDS011;3465;42.144;24.722;2023-07-02T04:24:01;18.98;;;6.57;;
6852;SDS011;3465;42.144;24.722;2023-07-02T04:26:27;12.48;;;7.13;;
6852;SDS011;3465;42.144;24.722;2023-07-02T04:28:53;14.88;;;6.43;;
6852;SDS011;3465;42.144;24.722;2023-07-02T04:31:19;15.80;;;6.78;;
6852;SDS011;3465;42.144;24.722;2023-07-02T04:33:44;15.40;;;6.65;;
6852;SDS011;3465;42.144;24.722;2023-07-02T04:36:10;17.80;;;7.30;;
6852;SDS011;3465;42.144;24.722;2023-07-02T04:38:35;20.00;;;7.50;;
6852;SDS011;3465;42.144;24.722;2023-07-02T04:41:00;17.23;;;6.70;;
6852;SDS011;3465;42.144;24.722;2023-07-02T04:43:30;18.70;;;7.13;;
6852;SDS011;3465;42.144;24.722;2023-07-02T04:45:56;16.42;;;7.03;;
6852;SDS011;3465;42.144;24.722;2023-07-02T04:48:22;16.63;;;6.68;;
6852;SDS011;3465;42.144;24.722;2023-07-02T04:50:48;18.33;;;6.95;;
6852;SDS011;3465;42.144;24.722;2023-07-02T04:53:13;14.15;;;7.25;;
6852;SDS011;3465;42.144;24.722;2023-07-02T04:55:39;12.57;;;6.57;;
6852;SDS011;3465;42.144;24.722;2023-07-02T04:58:04;14.68;;;7.20;;
6852;SDS011;3465;42.144;24.722;2023-07-02T05:00:29;14.85;;;6.32;;
6852;SDS011;3465;42.144;24.722;2023-07-02T05:02:55;23.08;;;8.02;;
6852;SDS011;3465;42.144;24.722;2023-07-02T05:05:20;13.27;;;7.18;;
6852;SDS011;3465;42.144;24.722;2023-07-02T05:07:45;14.40;;;7.15;;
6852;SDS011;3465;42.144;24.722;2023-07-02T05:10:11;16.58;;;6.85;;
6852;SDS011;3465;42.144;24.722;2023-07-02T05:12:36;15.52;;;7.38;;
6852;SDS011;3465;42.144;24.722;2023-07-02T05:15:02;14.65;;;7.57;;
6852;SDS011;3465;42.144;24.722;2023-07-02T05:17:27;14.98;;;8.18;;
6852;SDS011;3465;42.144;24.722;2023-07-02T05:19:53;16.38;;;7.18;;
6852;SDS011;3465;42.144;24.722;2023-07-02T05:22:19;20.10;;;8.00;;
6852;SDS011;3465;42.144;24.722;2023-07-02T05:24:44;20.77;;;8.57;;
6852;SDS011;3465;42.144;24.722;2023-07-02T05:27:11;14.85;;;7.75;;
6852;SDS011;3465;42.144;24.722;2023-07-02T05:29:36;14.85;;;8.63;;
6852;SDS011;3465;42.144;24.722;2023-07-02T05:32:02;16.17;;;7.80;;
6852;SDS011;3465;42.144;24.722;2023-07-02T05:34:27;12.57;;;7.38;;
6852;SDS011;3465;42.144;24.722;2023-07-02T05:36:53;14.43;;;7.53;;
6852;SDS011;3465;42.144;24.722;2023-07-02T05:39:18;18.17;;;8.80;;
6852;SDS011;3465;42.144;24.722;2023-07-02T05:41:44;15.38;;;6.78;;
6852;SDS011;3465;42.144;24.722;2023-07-02T05:44:09;14.02;;;7.00;;
6852;SDS011;3465;42.144;24.722;2023-07-02T05:46:34;12.00;;;6.43;;
6852;SDS011;3465;42.144;24.722;2023-07-02T05:49:00;12.63;;;7.00;;
6852;SDS011;3465;42.144;24.722;2023-07-02T05:51:25;12.05;;;6.43;;
6852;SDS011;3465;42.144;24.722;2023-07-02T05:53:51;12.23;;;6.72;;
6852;SDS011;3465;42.144;24.722;2023-07-02T05:56:17;18.60;;;7.50;;
6852;SDS011;3465;42.144;24.722;2023-07-02T05:58:44;18.75;;;6.90;;
6852;SDS011;3465;42.144;24.722;2023-07-02T06:01:11;11.52;;;6.20;;
6852;SDS011;3465;42.144;24.722;2023-07-02T06:03:36;13.35;;;6.97;;
6852;SDS011;3465;42.144;24.722;2023-07-02T06:06:02;14.35;;;6.75;;
6852;SDS011;3465;42.144;24.722;2023-07-02T06:08:28;22.10;;;7.63;;
6852;SDS011;3465;42.144;24.722;2023-07-02T06:10:53;14.45;;;7.38;;
6852;SDS011;3465;42.144;24.722;2023-07-02T06:13:19;14.32;;;6.65;;
6852;SDS011;3465;42.144;24.722;2023-07-02T06:15:44;17.77;;;6.80;;
6852;SDS011;3465;42.144;24.722;2023-07-02T06:18:11;15.77;;;6.72;;
6852;SDS011;3465;42.144;24.722;2023-07-02T06:20:37;17.48;;;6.82;;
6852;SDS011;3465;42.144;24.722;2023-07-02T06:23:02;11.85;;;7.25;;
6852;SDS011;3465;42.144;24.722;2023-07-02T06:25:28;14.27;;;7.43;;
6852;SDS011;3465;42.144;24.722;2023-07-02T06:27:53;12.93;;;7.35;;
6852;SDS011;3465;42.144;24.722;2023-07-02T06:30:21;14.95;;;6.90;;
6852;SDS011;3465;42.144;24.722;2023-07-02T06:32:47;14.63;;;6.93;;
6852;SDS011;3465;42.144;24.722;2023-07-02T06:35:12;26.08;;;7.88;;
6852;SDS011;3465;42.144;24.722;2023-07-02T06:37:37;17.00;;;6.93;;
6852;SDS011;3465;42.144;24.722;2023-07-02T06:40:03;18.83;;;6.85;;
6852;SDS011;3465;42.144;24.722;2023-07-02T06:42:29;11.73;;;6.72;;
6852;SDS011;3465;42.144;24.722;2023-07-02T06:44:55;14.90;;;7.07;;
6852;SDS011;3465;42.144;24.722;2023-07-02T06:47:20;14.60;;;6.55;;
6852;SDS011;3465;42.144;24.722;2023-07-02T06:49:45;15.60;;;7.15;;
6852;SDS011;3465;42.144;24.722;2023-07-02T06:52:11;11.55;;;6.72;;
6852;SDS011;3465;42.144;24.722;2023-07-02T06:54:36;10.82;;;6.53;;
6852;SDS011;3465;42.144;24.722;2023-07-02T06:57:02;10.07;;;5.65;;
6852;SDS011;3465;42.144;24.722;2023-07-02T06:59:27;14.75;;;6.45;;
6852;SDS011;3465;42.144;24.722;2023-07-02T07:01:52;19.95;;;6.55;;
6852;SDS011;3465;42.144;24.722;2023-07-02T07:04:18;15.13;;;6.85;;
6852;SDS011;3465;42.144;24.722;2023-07-02T07:06:45;13.82;;;6.78;;
6852;SDS011;3465;42.144;24.722;2023-07-02T07:09:11;12.88;;;5.97;;
6852;SDS011;3465;42.144;24.722;2023-07-02T07:11:36;23.02;;;6.43;;
6852;SDS011;3465;42.144;24.722;2023-07-02T07:14:02;11.32;;;6.47;;
6852;SDS011;3465;42.144;24.722;2023-07-02T07:16:27;12.85;;;6.85;;
6852;SDS011;3465;42.144;24.722;2023-07-02T07:18:53;13.18;;;6.38;;
6852;SDS011;3465;42.144;24.722;2023-07-02T07:21:18;10.93;;;5.88;;
6852;SDS011;3465;42.144;24.722;2023-07-02T07:23:44;11.02;;;6.18;;
6852;SDS011;3465;42.144;24.722;2023-07-02T07:26:10;14.20;;;6.50;;
6852;SDS011;3465;42.144;24.722;2023-07-02T07:28:35;13.80;;;6.82;;
6852;SDS011;3465;42.144;24.722;2023-07-02T07:31:01;14.02;;;6.25;;
6852;SDS011;3465;42.144;24.722;2023-07-02T07:33:26;12.48;;;7.15;;
6852;SDS011;3465;42.144;24.722;2023-07-02T07:35:52;12.05;;;6.53;;
6852;SDS011;3465;42.144;24.722;2023-07-02T07:38:18;12.32;;;6.25;;
6852;SDS011;3465;42.144;24.722;2023-07-02T07:40:43;10.40;;;6.40;;
6852;SDS011;3465;42.144;24.722;2023-07-02T07:43:09;9.85;;;6.18;;
6852;SDS011;3465;42.144;24.722;2023-07-02T07:45:34;9.73;;;6.18;;
6852;SDS011;3465;42.144;24.722;2023-07-02T07:48:00;9.43;;;6.00;;
6852;SDS011;3465;42.144;24.722;2023-07-02T07:50:26;10.10;;;5.97;;
6852;SDS011;3465;42.144;24.722;2023-07-02T07:52:51;10.05;;;6.05;;
6852;SDS011;3465;42.144;24.722;2023-07-02T07:55:17;8.45;;;5.90;;
6852;SDS011;3465;42.144;24.722;2023-07-02T07:57:42;14.00;;;6.90;;
6852;SDS011;3465;42.144;24.722;2023-07-02T08:00:08;9.68;;;6.28;;
6852;SDS011;3465;42.144;24.722;2023-07-02T08:02:37;9.68;;;5.90;;
6852;SDS011;3465;42.144;24.722;2023-07-02T08:05:03;11.77;;;5.63;;
6852;SDS011;3465;42.144;24.722;2023-07-02T08:07:31;10.25;;;5.72;;
6852;SDS011;3465;42.144;24.722;2023-07-02T08:09:56;8.20;;;5.40;;
6852;SDS011;3465;42.144;24.722;2023-07-02T08:12:22;9.82;;;5.65;;
6852;SDS011;3465;42.144;24.722;2023-07-02T08:14:48;8.80;;;5.47;;
6852;SDS011;3465;42.144;24.722;2023-07-02T08:17:14;9.95;;;5.47;;
6852;SDS011;3465;42.144;24.722;2023-07-02T08:19:39;19.75;;;5.97;;
6852;SDS011;3465;42.144;24.722;2023-07-02T08:22:05;9.38;;;5.00;;
6852;SDS011;3465;42.144;24.722;2023-07-02T08:24:30;9.73;;;5.50;;
6852;SDS011;3465;42.144;24.722;2023-07-02T08:26:56;11.18;;;5.22;;
6852;SDS011;3465;42.144;24.722;2023-07-02T08:29:22;10.57;;;4.85;;
6852;SDS011;3465;42.144;24.722;2023-07-02T08:31:48;8.45;;;5.30;;
6852;SDS011;3465;42.144;24.722;2023-07-02T08:34:13;8.95;;;4.80;;
6852;SDS011;3465;42.144;24.722;2023-07-02T08:36:39;6.88;;;5.10;;
6852;SDS011;3465;42.144;24.722;2023-07-02T08:39:04;13.70;;;4.97;;
6852;SDS011;3465;42.144;24.722;2023-07-02T08:41:30;7.18;;;5.20;;
6852;SDS011;3465;42.144;24.722;2023-07-02T08:43:56;9.88;;;5.32;;
6852;SDS011;3465;42.144;24.722;2023-07-02T08:46:24;9.65;;;5.07;;
6852;SDS011;3465;42.144;24.722;2023-07-02T08:48:49;10.05;;;5.35;;
6852;SDS011;3465;42.144;24.722;2023-07-02T08:51:15;13.50;;;5.20;;
6852;SDS011;3465;42.144;24.722;2023-07-02T08:53:41;9.00;;;4.90;;
6852;SDS011;3465;42.144;24.722;2023-07-02T08:56:06;8.90;;;5.00;;
6852;SDS011;3465;42.144;24.722;2023-07-02T08:58:31;5.80;;;4.78;;
6852;SDS011;3465;42.144;24.722;2023-07-02T09:01:06;9.23;;;5.45;;
6852;SDS011;3465;42.144;24.722;2023-07-02T09:03:37;10.68;;;4.88;;
6852;SDS011;3465;42.144;24.722;2023-07-02T09:06:09;9.88;;;5.15;;
6852;SDS011;3465;42.144;24.722;2023-07-02T09:08:35;8.63;;;5.00;;
6852;SDS011;3465;42.144;24.722;2023-07-02T09:13:48;8.88;;;4.97;;
6852;SDS011;3465;42.144;24.722;2023-07-02T09:16:25;26.20;;;6.78;;
6852;SDS011;3465;42.144;24.722;2023-07-02T09:24:17;6.93;;;5.30;;
6852;SDS011;3465;42.144;24.722;2023-07-02T09:26:47;14.43;;;5.85;;
6852;SDS011;3465;42.144;24.722;2023-07-02T09:29:26;9.75;;;4.93;;
6852;SDS011;3465;42.144;24.722;2023-07-02T09:31:53;8.70;;;4.88;;
6852;SDS011;3465;42.144;24.722;2023-07-02T09:36:55;7.43;;;4.78;;
6852;SDS011;3465;42.144;24.722;2023-07-02T09:39:25;12.73;;;5.07;;
6852;SDS011;3465;42.144;24.722;2023-07-02T09:41:53;9.02;;;4.93;;
6852;SDS011;3465;42.144;24.722;2023-07-02T09:44:20;7.82;;;4.53;;
6852;SDS011;3465;42.144;24.722;2023-07-02T09:46:52;10.25;;;5.25;;
6852;SDS011;3465;42.144;24.722;2023-07-02T09:49:24;15.07;;;5.78;;
6852;SDS011;3465;42.144;24.722;2023-07-02T09:51:51;10.63;;;4.97;;
6852;SDS011;3465;42.144;24.722;2023-07-02T09:54:16;8.00;;;4.82;;
6852;SDS011;3465;42.144;24.722;2023-07-02T09:56:45;8.75;;;4.80;;
6852;SDS011;3465;42.144;24.722;2023-07-02T09:59:11;7.60;;;4.53;;
6852;SDS011;3465;42.144;24.722;2023-07-02T10:01:36;10.35;;;4.93;;
6852;SDS011;3465;42.144;24.722;2023-07-02T10:04:12;12.00;;;4.80;;
6852;SDS011;3465;42.144;24.722;2023-07-02T10:06:46;9.90;;;5.07;;
6852;SDS011;3465;42.144;24.722;2023-07-02T10:09:17;11.13;;;5.00;;
6852;SDS011;3465;42.144;24.722;2023-07-02T10:11:43;11.10;;;5.30;;
6852;SDS011;3465;42.144;24.722;2023-07-02T10:14:09;8.98;;;5.50;;
6852;SDS011;3465;42.144;24.722;2023-07-02T10:16:47;10.30;;;5.22;;
6852;SDS011;3465;42.144;24.722;2023-07-02T10:19:20;10.38;;;5.07;;
6852;SDS011;3465;42.144;24.722;2023-07-02T10:21:46;12.95;;;5.20;;
6852;SDS011;3465;42.144;24.722;2023-07-02T10:24:25;10.57;;;5.25;;
6852;SDS011;3465;42.144;24.722;2023-07-02T10:27:00;8.30;;;5.00;;
6852;SDS011;3465;42.144;24.722;2023-07-02T10:29:28;8.85;;;4.85;;
6852;SDS011;3465;42.144;24.722;2023-07-02T10:31:55;7.50;;;5.00;;
6852;SDS011;3465;42.144;24.722;2023-07-02T10:34:31;8.38;;;4.78;;
6852;SDS011;3465;42.144;24.722;2023-07-02T10:36:58;7.40;;;4.32;;
6852;SDS011;3465;42.144;24.722;2023-07-02T10:39:24;9.50;;;4.82;;
6852;SDS011;3465;42.144;24.722;2023-07-02T10:41:51;8.98;;;5.20;;
6852;SDS011;3465;42.144;24.722;2023-07-02T10:44:17;7.65;;;5.43;;
6852;SDS011;3465;42.144;24.722;2023-07-02T10:46:43;9.80;;;5.38;;
6852;SDS011;3465;42.144;24.722;2023-07-02T10:49:12;9.20;;;5.63;;
6852;SDS011;3465;42.144;24.722;2023-07-02T10:51:38;15.13;;;6.18;;
6852;SDS011;3465;42.144;24.722;2023-07-02T10:54:04;16.85;;;6.90;;
6852;SDS011;3465;42.144;24.722;2023-07-02T10:56:30;12.35;;;7.03;;
6852;SDS011;3465;42.144;24.722;2023-07-02T10:58:56;13.60;;;7.38;;
6852;SDS011;3465;42.144;24.722;2023-07-02T11:01:28;12.60;;;6.95;;
6852;SDS011;3465;42.144;24.722;2023-07-02T11:03:59;15.52;;;7.07;;
6852;SDS011;3465;42.144;24.722;2023-07-02T11:06:26;12.95;;;7.30;;
6852;SDS011;3465;42.144;24.722;2023-07-02T11:08:56;13.73;;;7.57;;
6852;SDS011;3465;42.144;24.722;2023-07-02T11:11:21;14.65;;;7.25;;
6852;SDS011;3465;42.144;24.722;2023-07-02T11:13:49;20.63;;;8.20;;
6852;SDS011;3465;42.144;24.722;2023-07-02T11:16:22;12.85;;;7.18;;
6852;SDS011;3465;42.144;24.722;2023-07-02T11:18:54;15.52;;;7.18;;
6852;SDS011;3465;42.144;24.722;2023-07-02T11:21:36;18.58;;;7.28;;
6852;SDS011;3465;42.144;24.722;2023-07-02T11:24:05;13.60;;;7.07;;
6852;SDS011;3465;42.144;24.722;2023-07-02T11:26:39;19.50;;;7.70;;
6852;SDS011;3465;42.144;24.722;2023-07-02T11:29:11;15.10;;;7.57;;
6852;SDS011;3465;42.144;24.722;2023-07-02T11:31:37;15.88;;;7.68;;
6852;SDS011;3465;42.144;24.722;2023-07-02T11:34:19;12.93;;;7.22;;
6852;SDS011;3465;42.144;24.722;2023-07-02T11:36:46;10.15;;;6.95;;
6852;SDS011;3465;42.144;24.722;2023-07-02T11:39:11;13.52;;;7.43;;
6852;SDS011;3465;42.144;24.722;2023-07-02T11:41:40;16.75;;;7.90;;
6852;SDS011;3465;42.144;24.722;2023-07-02T11:44:07;14.23;;;7.50;;
6852;SDS011;3465;42.144;24.722;2023-07-02T11:46:33;15.40;;;7.82;;
6852;SDS011;3465;42.144;24.722;2023-07-02T11:49:02;14.30;;;7.70;;
6852;SDS011;3465;42.144;24.722;2023-07-02T11:51:35;16.60;;;6.82;;
6852;SDS011;3465;42.144;24.722;2023-07-02T11:54:02;11.60;;;6.95;;
6852;SDS011;3465;42.144;24.722;2023-07-02T11:56:28;14.55;;;7.60;;
6852;SDS011;3465;42.144;24.722;2023-07-02T11:58:53;14.45;;;7.53;;
6852;SDS011;3465;42.144;24.722;2023-07-02T12:01:19;12.68;;;7.10;;
6852;SDS011;3465;42.144;24.722;2023-07-02T12:03:44;14.57;;;7.38;;
6852;SDS011;3465;42.144;24.722;2023-07-02T12:06:10;12.32;;;6.82;;
6852;SDS011;3465;42.144;24.722;2023-07-02T12:08:36;13.52;;;7.93;;
6852;SDS011;3465;42.144;24.722;2023-07-02T12:11:01;17.55;;;7.68;;
6852;SDS011;3465;42.144;24.722;2023-07-02T12:13:26;13.85;;;7.43;;
6852;SDS011;3465;42.144;24.722;2023-07-02T12:15:52;16.10;;;7.20;;
6852;SDS011;3465;42.144;24.722;2023-07-02T12:18:17;13.52;;;7.38;;
6852;SDS011;3465;42.144;24.722;2023-07-02T12:20:42;14.98;;;6.90;;
6852;SDS011;3465;42.144;24.722;2023-07-02T12:23:08;9.68;;;6.00;;
6852;SDS011;3465;42.144;24.722;2023-07-02T12:25:35;13.80;;;6.43;;
6852;SDS011;3465;42.144;24.722;2023-07-02T12:28:01;12.27;;;6.28;;
6852;SDS011;3465;42.144;24.722;2023-07-02T12:30:28;9.77;;;6.20;;
6852;SDS011;3465;42.144;24.722;2023-07-02T12:32:53;11.27;;;6.05;;
6852;SDS011;3465;42.144;24.722;2023-07-02T12:35:18;10.57;;;6.28;;
6852;SDS011;3465;42.144;24.722;2023-07-02T12:37:44;9.50;;;6.32;;
6852;SDS011;3465;42.144;24.722;2023-07-02T12:40:11;10.65;;;6.40;;
6852;SDS011;3465;42.144;24.722;2023-07-02T12:42:37;11.45;;;6.15;;
6852;SDS011;3465;42.144;24.722;2023-07-02T12:45:03;11.68;;;7.22;;
6852;SDS011;3465;42.144;24.722;2023-07-02T12:47:29;14.15;;;6.60;;
6852;SDS011;3465;42.144;24.722;2023-07-02T12:49:54;12.20;;;6.80;;
6852;SDS011;3465;42.144;24.722;2023-07-02T12:52:19;11.48;;;6.93;;
6852;SDS011;3465;42.144;24.722;2023-07-02T12:54:45;11.70;;;6.72;;
6852;SDS011;3465;42.144;24.722;2023-07-02T12:57:10;11.90;;;6.45;;
6852;SDS011;3465;42.144;24.722;2023-07-02T12:59:35;14.65;;;6.82;;
6852;SDS011;3465;42.144;24.722;2023-07-02T13:02:01;11.77;;;6.68;;
6852;SDS011;3465;42.144;24.722;2023-07-02T13:04:27;13.40;;;6.05;;
6852;SDS011;3465;42.144;24.722;2023-07-02T13:06:52;11.68;;;6.53;;
6852;SDS011;3465;42.144;24.722;2023-07-02T13:09:18;11.30;;;6.25;;
6852;SDS011;3465;42.144;24.722;2023-07-02T13:11:43;11.10;;;6.97;;
6852;SDS011;3465;42.144;24.722;2023-07-02T13:14:09;11.38;;;6.72;;
6852;SDS011;3465;42.144;24.722;2023-07-02T13:16:34;13.48;;;6.43;;
6852;SDS011;3465;42.144;24.722;2023-07-02T13:18:59;16.33;;;7.40;;
6852;SDS011;3465;42.144;24.722;2023-07-02T13:21:26;13.77;;;7.22;;
6852;SDS011;3465;42.144;24.722;2023-07-02T13:23:52;11.50;;;6.97;;
6852;SDS011;3465;42.144;24.722;2023-07-02T13:26:17;11.90;;;6.22;;
6852;SDS011;3465;42.144;24.722;2023-07-02T13:28:43;10.35;;;6.53;;
6852;SDS011;3465;42.144;24.722;2023-07-02T13:31:10;11.93;;;6.75;;
6852;SDS011;3465;42.144;24.722;2023-07-02T13:33:36;11.48;;;6.97;;
6852;SDS011;3465;42.144;24.722;2023-07-02T13:36:03;11.48;;;7.25;;
6852;SDS011;3465;42.144;24.722;2023-07-02T13:38:29;15.15;;;8.02;;
6852;SDS011;3465;42.144;24.722;2023-07-02T13:40:54;11.68;;;7.47;;
6852;SDS011;3465;42.144;24.722;2023-07-02T13:43:19;12.35;;;7.75;;
6852;SDS011;3465;42.144;24.722;2023-07-02T13:45:45;10.93;;;7.15;;
6852;SDS011;3465;42.144;24.722;2023-07-02T13:48:10;12.95;;;7.53;;
6852;SDS011;3465;42.144;24.722;2023-07-02T13:50:35;15.13;;;8.13;;
6852;SDS011;3465;42.144;24.722;2023-07-02T13:53:01;16.15;;;8.23;;
6852;SDS011;3465;42.144;24.722;2023-07-02T13:55:27;12.27;;;7.75;;
6852;SDS011;3465;42.144;24.722;2023-07-02T13:57:53;17.63;;;8.05;;
6852;SDS011;3465;42.144;24.722;2023-07-02T14:00:20;17.30;;;8.05;;
6852;SDS011;3465;42.144;24.722;2023-07-02T14:02:45;12.25;;;7.50;;
6852;SDS011;3465;42.144;24.722;2023-07-02T14:05:10;14.52;;;7.95;;
6852;SDS011;3465;42.144;24.722;2023-07-02T14:07:36;11.90;;;7.35;;
6852;SDS011;3465;42.144;24.722;2023-07-02T14:10:02;16.13;;;8.10;;
6852;SDS011;3465;42.144;24.722;2023-07-02T14:12:27;13.00;;;7.10;;
6852;SDS011;3465;42.144;24.722;2023-07-02T14:14:53;12.98;;;7.20;;
6852;SDS011;3465;42.144;24.722;2023-07-02T14:17:18;11.70;;;6.70;;
6852;SDS011;3465;42.144;24.722;2023-07-02T14:19:44;11.45;;;6.90;;
6852;SDS011;3465;42.144;24.722;2023-07-02T14:22:09;16.05;;;7.50;;
6852;SDS011;3465;42.144;24.722;2023-07-02T14:24:34;11.85;;;6.22;;
6852;SDS011;3465;42.144;24.722;2023-07-02T14:27:00;11.98;;;6.68;;
6852;SDS011;3465;42.144;24.722;2023-07-02T14:29:25;11.30;;;5.95;;
6852;SDS011;3465;42.144;24.722;2023-07-02T14:31:51;13.73;;;6.68;;
6852;SDS011;3465;42.144;24.722;2023-07-02T14:34:16;12.73;;;6.38;;
6852;SDS011;3465;42.144;24.722;2023-07-02T14:36:42;12.23;;;6.68;;
6852;SDS011;3465;42.144;24.722;2023-07-02T14:39:07;14.13;;;7.13;;
6852;SDS011;3465;42.144;24.722;2023-07-02T14:41:32;13.02;;;7.05;;
6852;SDS011;3465;42.144;24.722;2023-07-02T14:44:01;12.38;;;6.75;;
6852;SDS011;3465;42.144;24.722;2023-07-02T14:46:27;11.75;;;6.35;;
6852;SDS011;3465;42.144;24.722;2023-07-02T14:48:52;9.25;;;5.40;;
6852;SDS011;3465;42.144;24.722;2023-07-02T14:51:18;9.75;;;5.45;;
6852;SDS011;3465;42.144;24.722;2023-07-02T14:53:43;8.38;;;5.28;;
6852;SDS011;3465;42.144;24.722;2023-07-02T14:56:09;9.35;;;6.10;;
6852;SDS011;3465;42.144;24.722;2023-07-02T14:58:34;10.85;;;5.68;;